createdAt,value
2022-10-29T06:30:29.839Z,101240.84
2022-10-29T06:33:09.908Z,101230.66
2022-10-29T06:35:46.999Z,101236.34
2022-10-29T06:38:24.029Z,101240.00
2022-10-29T06:41:00.671Z,101248.72
2022-10-29T06:43:37.806Z,101242.25
2022-10-29T06:46:14.671Z,101247.44
2022-10-29T06:48:54.697Z,101245.50
2022-10-29T06:51:31.440Z,101242.81
2022-10-29T06:54:09.664Z,101244.50
2022-10-29T06:56:46.893Z,101248.88
2022-10-29T06:59:24.815Z,101234.78
2022-10-29T07:02:01.833Z,101246.22
2022-10-29T07:04:41.535Z,101237.88
2022-10-29T07:07:18.750Z,101244.91
2022-10-29T07:09:55.799Z,101251.56
2022-10-29T07:12:32.647Z,101253.25
2022-10-29T07:15:10.950Z,101253.25
2022-10-29T07:17:57.578Z,101266.53
2022-10-29T07:20:40.540Z,101276.69
2022-10-29T07:23:17.953Z,101267.38
2022-10-29T07:25:57.090Z,101266.94
2022-10-29T07:28:36.841Z,101264.81
2022-10-29T07:31:15.360Z,101271.56
2022-10-29T07:33:53.539Z,101273.84
2022-10-29T07:36:34.330Z,101267.78
2022-10-29T07:39:11.610Z,101260.84
2022-10-29T07:41:48.629Z,101271.72
2022-10-29T07:44:26.878Z,101253.66
2022-10-29T07:47:03.889Z,101261.72
2022-10-29T07:49:41.108Z,101261.47
2022-10-29T07:52:21.210Z,101255.13
2022-10-29T07:55:01.037Z,101260.59
2022-10-29T07:57:38.321Z,101252.69
2022-10-29T08:00:17.187Z,101269.94
2022-10-29T08:02:57.630Z,101286.16
2022-10-29T08:05:35.648Z,101293.09
2022-10-29T08:08:15.304Z,101294.75
2022-10-29T08:10:52.232Z,101291.94
2022-10-29T08:13:30.025Z,101298.72
2022-10-29T08:16:07.233Z,101313.53
2022-10-29T08:18:45.431Z,101294.59
2022-10-29T08:21:22.632Z,101287.72
2022-10-29T08:24:02.405Z,101293.47
2022-10-29T08:26:39.242Z,101307.47
2022-10-29T08:29:16.513Z,101287.16
2022-10-29T08:31:53.210Z,101299.00
2022-10-29T08:34:30.370Z,101293.63
2022-10-29T08:37:07.020Z,101297.28
2022-10-29T08:39:46.711Z,101314.81
2022-10-29T08:42:48.114Z,101324.53
2022-10-29T08:45:28.782Z,101322.69
2022-10-29T08:48:34.161Z,101316.47
2022-10-29T08:51:21.560Z,101328.06
2022-10-29T08:57:07.272Z,101316.47
2022-10-29T08:59:56.625Z,101329.19
2022-10-29T09:02:34.089Z,101342.91
2022-10-29T09:05:17.549Z,101341.78
2022-10-29T09:08:15.798Z,101370.41
2022-10-29T09:10:58.062Z,101342.59
2022-10-29T09:13:59.025Z,101363.50
2022-10-29T09:16:47.321Z,101367.59
2022-10-29T09:19:43.150Z,101351.75
2022-10-29T09:22:28.146Z,101354.19
2022-10-29T09:25:19.749Z,101359.13
2022-10-29T09:28:12.570Z,101378.59
2022-10-29T09:31:06.339Z,101362.91
2022-10-29T09:33:43.389Z,101351.22
2022-10-29T09:36:24.270Z,101356.31
2022-10-29T09:39:09.872Z,101354.34
2022-10-29T09:41:53.129Z,101347.53
2022-10-29T09:44:41.751Z,101378.56
2022-10-29T09:47:37.181Z,101367.00
2022-10-29T09:50:25.891Z,101371.81
2022-10-29T09:53:03.722Z,101377.16
2022-10-29T09:55:44.121Z,101386.47
2022-10-29T09:58:25.242Z,101387.47
2022-10-29T10:01:02.031Z,101380.81
2022-10-29T10:03:46.070Z,101385.63
2022-10-29T10:06:23.323Z,101414.66
2022-10-29T10:09:05.196Z,101396.34
2022-10-29T10:11:45.875Z,101400.97
2022-10-29T10:14:26.874Z,101405.88
2022-10-29T10:17:07.214Z,101398.53
2022-10-29T10:19:50.503Z,101405.88
2022-10-29T10:22:27.537Z,101423.09
2022-10-29T10:25:04.712Z,101416.41
2022-10-29T10:27:41.505Z,101428.84
2022-10-29T10:30:23.300Z,101412.03
2022-10-29T10:33:15.484Z,101410.34
2022-10-29T10:35:57.622Z,101412.88
2022-10-29T10:38:43.563Z,101407.13
2022-10-29T10:41:28.432Z,101406.16
2022-10-29T10:44:08.114Z,101394.84
2022-10-29T10:46:47.829Z,101400.63
2022-10-29T10:49:35.564Z,101418.69
2022-10-29T10:52:24.963Z,101425.88
2022-10-29T10:55:05.933Z,101428.13
2022-10-29T10:57:57.320Z,101429.81
2022-10-29T11:00:40.939Z,101430.66
2022-10-29T11:06:28.344Z,101415.97
2022-10-29T11:09:21.194Z,101418.47
2022-10-29T11:12:04.762Z,101418.81
2022-10-29T11:14:50.073Z,101421.91
2022-10-29T11:17:34.528Z,101413.22
2022-10-29T11:20:23.638Z,101411.81
2022-10-29T11:23:18.417Z,101411.25
2022-10-29T11:26:08.277Z,101413.34
2022-10-29T11:28:52.094Z,101403.75
2022-10-29T11:31:43.714Z,101410.41
2022-10-29T11:34:26.499Z,101414.97
2022-10-29T11:37:12.208Z,101417.66
2022-10-29T11:39:55.453Z,101427.13
2022-10-29T11:42:36.626Z,101412.47
2022-10-29T11:45:20.195Z,101414.44
2022-10-29T11:48:22.027Z,101415.56
2022-10-29T11:51:08.395Z,101413.88
2022-10-29T11:54:02.140Z,101423.31
2022-10-29T11:56:56.116Z,101409.09
2022-10-29T11:59:58.799Z,101416.44
2022-10-29T12:03:25.261Z,101425.88
2022-10-29T12:06:16.947Z,101415.59
2022-10-29T12:09:08.876Z,101418.38
2022-10-29T12:11:54.181Z,101410.78
2022-10-29T12:14:41.936Z,101428.56
2022-10-29T12:17:25.025Z,101422.63
2022-10-29T12:20:09.645Z,101417.59
2022-10-29T12:23:00.743Z,101424.06
2022-10-29T12:25:59.092Z,101410.09
2022-10-29T12:28:50.305Z,101409.97
2022-10-29T12:31:39.150Z,101424.06
2022-10-29T12:34:30.926Z,101408.84
2022-10-29T12:37:16.909Z,101414.03
2022-10-29T12:40:01.158Z,101427.72
2022-10-29T12:42:38.949Z,101441.84
2022-10-29T12:45:53.082Z,101434.91
2022-10-29T12:48:50.302Z,101452.28
2022-10-29T12:51:44.030Z,101448.59
2022-10-29T12:54:35.300Z,101455.94
2022-10-29T12:57:34.353Z,101453.13
2022-10-29T13:00:55.014Z,101451.66
2022-10-29T13:04:05.623Z,101445.34
2022-10-29T13:07:01.566Z,101462.13
2022-10-29T13:09:48.936Z,101455.47
2022-10-29T13:13:03.242Z,101443.22
2022-10-29T13:15:43.825Z,101452.25
2022-10-29T13:18:31.767Z,101441.50
2022-10-29T13:21:18.953Z,101455.06
2022-10-29T13:24:08.354Z,101443.75
2022-10-29T13:27:10.023Z,101460.00
2022-10-29T13:29:57.152Z,101466.75
2022-10-29T13:32:44.307Z,101456.63
2022-10-29T13:35:45.754Z,101455.34
2022-10-29T13:38:58.072Z,101465.63
2022-10-29T13:41:45.728Z,101476.16
2022-10-29T13:44:32.871Z,101475.00
2022-10-29T13:47:30.499Z,101472.06
2022-10-29T13:50:27.205Z,101465.81
2022-10-29T13:53:19.384Z,101473.66
2022-10-29T13:56:06.659Z,101460.63
2022-10-29T13:58:48.517Z,101462.59
2022-10-29T14:01:35.081Z,101461.31
2022-10-29T14:04:28.961Z,101463.97
2022-10-29T14:07:23.234Z,101460.44
2022-10-29T14:10:23.164Z,101455.91
2022-10-29T14:13:19.148Z,101468.88
2022-10-29T14:16:14.304Z,101464.63
2022-10-29T14:18:57.637Z,101467.16
2022-10-29T14:21:44.643Z,101476.75
2022-10-29T14:24:27.108Z,101494.78
2022-10-29T14:27:12.132Z,101502.13
2022-10-29T14:29:57.384Z,101499.28
2022-10-29T14:32:47.441Z,101494.19
2022-10-29T14:35:31.586Z,101506.88
2022-10-29T14:38:14.155Z,101500.66
2022-10-29T14:40:53.841Z,101487.94
2022-10-29T14:43:36.388Z,101492.09
2022-10-29T14:46:38.576Z,101494.00
2022-10-29T14:49:23.480Z,101484.41
2022-10-29T14:52:06.024Z,101488.59
2022-10-29T14:54:55.014Z,101475.25
2022-10-29T14:57:41.666Z,101476.06
2022-10-29T15:00:30.350Z,101468.69
2022-10-29T15:03:22.898Z,101480.16
2022-10-29T15:06:24.445Z,101478.72
2022-10-29T15:09:07.802Z,101484.84
2022-10-29T15:12:03.100Z,101470.66
2022-10-29T15:14:53.718Z,101479.41
2022-10-29T15:17:39.642Z,101493.41
2022-10-29T15:20:31.122Z,101492.78
2022-10-29T15:23:09.785Z,101495.72
2022-10-29T15:25:50.904Z,101489.03
2022-10-29T15:28:32.140Z,101500.50
2022-10-29T15:31:10.502Z,101499.03
2022-10-29T15:33:49.307Z,101490.03
2022-10-29T15:36:29.269Z,101500.97
2022-10-29T15:39:27.117Z,101503.16
2022-10-29T15:42:05.141Z,101506.72
2022-10-29T15:44:43.322Z,101514.13
2022-10-29T15:47:30.491Z,101508.75
2022-10-29T15:50:09.241Z,101507.31
2022-10-29T15:52:51.922Z,101516.44
2022-10-29T15:55:34.314Z,101525.31
2022-10-29T15:58:18.097Z,101522.25
2022-10-29T16:00:54.881Z,101523.28
2022-10-29T16:03:35.485Z,101526.22
2022-10-29T16:06:15.910Z,101508.22
2022-10-29T16:08:59.041Z,101508.50
2022-10-29T16:11:38.050Z,101506.66
2022-10-29T16:14:15.222Z,101519.28
2022-10-29T16:16:52.067Z,101503.84
2022-10-29T16:19:29.361Z,101513.81
2022-10-29T16:22:06.274Z,101504.34
2022-10-29T16:24:45.981Z,101499.22
2022-10-29T16:27:22.921Z,101492.44
2022-10-29T16:30:00.125Z,101495.34
2022-10-29T16:32:37.000Z,101491.81
2022-10-29T16:35:21.722Z,101485.88
2022-10-29T16:37:59.960Z,101486.34
2022-10-29T16:40:40.404Z,101482.00
2022-10-29T16:43:17.192Z,101489.38
2022-10-29T16:45:54.560Z,101488.78
2022-10-29T16:48:32.160Z,101481.13
2022-10-29T16:51:11.138Z,101477.94
2022-10-29T16:53:48.859Z,101481.44
2022-10-29T16:56:28.990Z,101493.34
2022-10-29T16:59:06.012Z,101486.41
2022-10-29T17:01:45.179Z,101496.50
2022-10-29T17:04:27.071Z,101492.59
2022-10-29T17:07:06.313Z,101496.81
2022-10-29T17:09:44.097Z,101483.72
2022-10-29T17:12:27.476Z,101499.59
2022-10-29T17:15:05.164Z,101495.34
2022-10-29T17:17:45.586Z,101502.63
2022-10-29T17:20:24.236Z,101508.09
2022-10-29T17:23:01.470Z,101500.06
2022-10-29T17:25:38.191Z,101511.69
2022-10-29T17:28:18.069Z,101526.13
2022-10-29T17:30:55.122Z,101542.97
2022-10-29T17:33:32.369Z,101524.41
2022-10-29T17:36:19.380Z,101513.63
2022-10-29T17:38:57.304Z,101520.19
2022-10-29T17:41:34.483Z,101537.13
2022-10-29T17:44:14.389Z,101512.91
2022-10-29T17:46:52.001Z,101501.50
2022-10-29T17:49:29.882Z,101500.53
2022-10-29T17:52:07.716Z,101498.59
2022-10-29T17:54:45.178Z,101500.66
2022-10-29T17:57:23.605Z,101508.66
2022-10-29T18:00:04.382Z,101484.53
2022-10-29T18:02:45.733Z,101501.38
2022-10-29T18:05:39.926Z,101505.84
